KHHW

Stan Stamper Municipal Airport

Hugo, Oklahoma, USA
METAR KHHW 202335Z AUTO 31009KT 10SM CLR 30/18 A2993 RMK AO2 T02950177
Observed Flight Rules
Aug-20 @ 23:35 UTC (33 minutes ago) Visual Flight Rules
Wind Visibility Clouds
310° at 9 knots 10 miles
  • Clear skies
Temperatures Readings
Current 30°C / 86°F
Dewpoint 18°C / 64°F
Humidity 49%
Altimeter 29.93" Hg
Pressure 1014 hPa
Elevation 144
METAR KHHW 202335Z AUTO 31009KT 10SM CLR 30/18 A2993 RMK AO2 T02950177
Observed Flight Rules
Aug-20 @ 23:35 UTC
(33 minutes ago)
VFR
Wind Visibility
310° at 9 knots 10 miles
Clouds
  • Clear skies
Temperature Dewpoint
30°C / 86°F 18°C / 64°F
Humidity Altimeter Pressure
49% 29.93" Hg 1014 hPa